Time;durP1;ratioP1;P1;durP2;ratioP2;P2;SDS_P1;SDS_P2;PMS_P1;PMS_P2;Temp;Humidity;BMP_temperature;BMP_pressure;BME280_temperature;BME280_humidity;BME280_pressure;Samples;Min_cycle;Max_cycle;Signal;HPM_P1;HPM_P2
2021/05/21 00:00:54;;;;;;;3.17;2.33;;;;;;;13.66;100.00;98467.13;1719687;83;20925;-69
2021/05/21 00:03:20;;;;;;;4.20;2.55;;;;;;;13.66;100.00;98471.56;1717821;82;21086;-69
2021/05/21 00:05:53;;;;;;;3.58;2.45;;;;;;;13.65;100.00;98476.45;1718616;83;20937;-70
2021/05/21 00:08:42;;;;;;;3.92;2.50;;;;;;;13.61;100.00;98470.38;1716082;82;21855;-68
2021/05/21 00:11:07;;;;;;;2.58;2.30;;;;;;;13.61;100.00;98470.83;1711724;83;21574;-68
2021/05/21 00:13:33;;;;;;;5.08;2.15;;;;;;;13.58;100.00;98474.89;1718960;83;21595;-69
2021/05/21 00:16:07;;;;;;;5.10;2.45;;;;;;;13.55;100.00;98474.07;1719613;82;21530;-69
2021/05/21 00:18:38;;;;;;;2.40;2.20;;;;;;;13.54;100.00;98472.79;1719655;83;21510;-68
2021/05/21 00:21:31;;;;;;;7.80;2.20;;;;;;;13.53;100.00;98474.57;1719554;82;21471;-69
2021/05/21 00:24:23;;;;;;;5.53;2.10;;;;;;;13.55;100.00;98471.88;1715262;82;21563;-68
2021/05/21 00:26:58;;;;;;;2.87;2.20;;;;;;;13.51;100.00;98472.88;1715371;82;21470;-69
2021/05/21 00:29:24;;;;;;;3.10;2.00;;;;;;;13.50;100.00;98472.47;1714073;82;21886;-67
2021/05/21 00:32:08;;;;;;;3.27;2.10;;;;;;;13.48;100.00;98475.62;1718761;82;21424;-68
2021/05/21 00:37:22;;;;;;;4.12;2.50;;;;;;;13.43;100.00;98481.05;1714232;82;21558;-68
2021/05/21 00:40:04;;;;;;;5.28;2.47;;;;;;;13.41;100.00;98487.30;1719875;82;21463;-68
2021/05/21 00:42:39;;;;;;;6.17;2.50;;;;;;;13.37;100.00;98485.20;1719975;83;21765;-67
2021/05/21 00:45:19;;;;;;;3.20;2.35;;;;;;;13.36;100.00;98485.23;1719439;82;21514;-68
2021/05/21 00:47:53;;;;;;;2.22;1.95;;;;;;;13.33;100.00;98494.59;1718756;82;20957;-68
2021/05/21 00:50:26;;;;;;;3.40;2.10;;;;;;;13.29;100.00;98496.45;1719451;83;21451;-70
2021/05/21 00:52:59;;;;;;;3.95;2.35;;;;;;;13.30;100.00;98491.58;1719781;82;20913;-69
2021/05/21 00:55:35;;;;;;;7.92;3.00;;;;;;;13.30;100.00;98489.38;1719796;82;21308;-69
2021/05/21 00:58:26;;;;;;;4.87;2.40;;;;;;;13.29;100.00;98491.62;1719727;82;21622;-68
2021/05/21 01:00:54;;;;;;;5.45;2.02;;;;;;;13.29;100.00;98490.29;1715304;83;20895;-68
2021/05/21 01:03:17;;;;;;;;;;;;;;;13.28;100.00;98489.42;1718571;82;21044;-69
2021/05/21 01:05:53;;;;;;;4.45;2.22;;;;;;;13.28;100.00;98488.09;1692554;83;20490;-68
2021/05/21 01:08:38;;;;;;;4.65;2.50;;;;;;;13.28;100.00;98489.42;1716972;83;21582;-68
2021/05/21 01:11:17;;;;;;;7.37;2.20;;;;;;;13.26;100.00;98482.43;1718791;83;21736;-68
2021/05/21 01:13:48;;;;;;;3.12;2.30;;;;;;;13.26;100.00;98485.95;1719610;82;21440;-67
2021/05/21 01:16:26;;;;;;;4.42;2.10;;;;;;;13.26;100.00;98494.35;1719745;82;20930;-68
2021/05/21 01:18:54;;;;;;;5.75;2.22;;;;;;;13.23;100.00;98494.81;1719414;83;21396;-69
2021/05/21 01:21:36;;;;;;;4.80;2.22;;;;;;;13.19;100.00;98486.53;1719882;83;21279;-68
2021/05/21 01:24:24;;;;;;;3.35;2.40;;;;;;;13.17;100.00;98493.66;1718654;82;20948;-68
2021/05/21 01:26:48;;;;;;;3.60;2.15;;;;;;;13.16;100.00;98497.64;1713253;82;21455;-68
2021/05/21 01:32:42;;;;;;;3.42;2.22;;;;;;;13.12;100.00;98498.17;1717862;83;21404;-69
2021/05/21 01:38:26;;;;;;;2.35;2.08;;;;;;;13.07;100.00;98492.59;1704784;83;20941;-68
2021/05/21 01:41:33;;;;;;;5.37;2.20;;;;;;;13.06;100.00;98501.44;1621926;86;20999;-69
2021/05/21 01:43:56;;;;;;;5.65;1.95;;;;;;;13.07;100.00;98500.08;1676539;83;21548;-69
2021/05/21 01:46:43;;;;;;;3.47;1.90;;;;;;;13.06;100.00;98508.93;1635344;87;21437;-68
2021/05/21 01:49:28;;;;;;;2.33;2.00;;;;;;;13.05;100.00;98505.87;1691612;83;21402;-69
2021/05/21 01:52:01;;;;;;;4.53;2.37;;;;;;;13.04;100.00;98507.23;1694556;83;21389;-69
2021/05/21 01:55:00;;;;;;;;;;;;;;;;;;;;;
2021/05/21 01:57:44;;;;;;;3.22;2.20;;;;;;;13.11;100.00;98512.78;1719358;82;21493;-69
2021/05/21 02:00:21;;;;;;;6.70;2.30;;;;;;;13.10;100.00;98523.83;1719453;82;21388;-67
2021/05/21 02:02:54;;;;;;;5.87;2.15;;;;;;;13.09;100.00;98520.77;1714861;83;21372;-68
2021/05/21 02:05:32;;;;;;;2.72;1.70;;;;;;;13.09;100.00;98518.12;1718555;82;21412;-69
2021/05/21 02:08:11;;;;;;;3.27;2.08;;;;;;;13.09;100.00;98521.22;1706922;83;21428;-68
2021/05/21 02:10:48;;;;;;;4.00;1.95;;;;;;;13.10;100.00;98523.83;1719548;82;21439;-68
2021/05/21 02:13:43;;;;;;;2.40;2.20;;;;;;;13.09;100.00;98525.19;1711661;82;20897;-70
2021/05/21 02:16:17;;;;;;;2.95;2.10;;;;;;;13.08;100.00;98523.00;1719764;83;21193;-64
2021/05/21 02:18:54;;;;;;;2.67;1.67;;;;;;;13.09;100.00;98522.55;1720090;82;21492;-69
2021/05/21 02:21:40;;;;;;;1.75;1.65;;;;;;;13.11;100.00;98528.21;1717074;82;21384;-70
2021/05/21 02:26:54;;;;;;;2.85;1.87;;;;;;;13.14;100.00;98509.59;1704476;82;21431;-69
2021/05/21 02:29:39;;;;;;;2.47;1.62;;;;;;;13.15;100.00;98511.78;1717054;82;21069;-70
2021/05/21 02:32:24;;;;;;;3.45;1.65;;;;;;;13.16;100.00;98517.05;1719364;82;21448;-69
2021/05/21 02:34:52;;;;;;;3.92;1.90;;;;;;;13.18;100.00;98530.28;1718668;83;20922;-66
2021/05/21 02:37:24;;;;;;;2.65;2.08;;;;;;;13.17;100.00;98536.48;1719772;83;20929;-70
2021/05/21 02:39:58;;;;;;;3.92;2.20;;;;;;;13.16;100.00;98538.69;1708196;82;20891;-70
2021/05/21 02:42:30;;;;;;;4.65;2.02;;;;;;;13.14;100.00;98544.48;1706220;82;21821;-69
2021/05/21 02:44:59;;;;;;;2.98;1.85;;;;;;;13.15;100.00;98547.08;1706161;82;21468;-70
2021/05/21 02:47:36;;;;;;;4.08;1.92;;;;;;;13.15;100.00;98543.11;1706371;82;20966;-70
2021/05/21 02:50:07;;;;;;;8.63;2.35;;;;;;;13.17;100.00;98552.37;1705338;82;21440;-70
2021/05/21 02:52:41;;;;;;;3.70;2.10;;;;;;;13.17;100.00;98551.05;1706359;82;20950;-70
2021/05/21 02:55:15;;;;;;;3.15;1.87;;;;;;;13.16;100.00;98557.22;1705365;84;21345;-70
2021/05/21 03:00:53;;;;;;;2.80;2.02;;;;;;;13.14;100.00;98557.72;1698329;82;20950;-70
2021/05/21 03:03:23;;;;;;;4.78;1.98;;;;;;;13.12;100.00;98557.75;1706201;84;21429;-71
2021/05/21 03:05:55;;;;;;;2.52;2.05;;;;;;;13.12;100.00;98564.83;1706292;82;21409;-69
2021/05/21 03:08:28;;;;;;;4.55;1.75;;;;;;;13.12;100.00;98563.50;1705765;82;22137;-71
2021/05/21 03:11:03;;;;;;;2.47;1.77;;;;;;;13.13;100.00;98559.49;1706090;82;20918;-70
2021/05/21 03:13:32;;;;;;;2.83;1.77;;;;;;;13.15;100.00;98562.97;1706199;82;21408;-70
2021/05/21 03:16:02;;;;;;;2.90;1.70;;;;;;;13.16;100.00;98560.73;1705713;82;21457;-69
2021/05/21 03:18:33;;;;;;;2.22;1.70;;;;;;;13.16;100.00;98561.19;1706153;82;20910;-69
2021/05/21 03:21:03;;;;;;;2.30;1.60;;;;;;;13.18;100.00;98560.27;1706091;83;21417;-69
2021/05/21 03:23:33;;;;;;;4.33;2.95;;;;;;;13.21;100.00;98557.55;1706518;82;20942;-74
2021/05/21 03:26:06;;;;;;;9.10;1.75;;;;;;;13.22;100.00;98567.23;1705822;84;21409;-69
2021/05/21 03:28:40;;;;;;;4.33;1.57;;;;;;;13.21;100.00;98570.79;1706075;82;21532;-70
2021/05/21 03:31:08;;;;;;;2.95;1.90;;;;;;;13.21;100.00;98576.09;1706200;82;20934;-70
2021/05/21 03:33:38;;;;;;;6.22;1.70;;;;;;;13.20;100.00;98579.64;1706141;82;20987;-70
2021/05/21 03:36:06;;;;;;;2.90;1.52;;;;;;;13.21;100.00;98576.55;1706094;84;21445;-70
2021/05/21 03:38:38;;;;;;;2.60;1.85;;;;;;;13.18;100.00;98585.44;1706481;83;21369;-70
2021/05/21 03:43:49;;;;;;;5.47;2.02;;;;;;;13.17;100.00;98585.02;1700879;84;21333;-70
2021/05/21 03:46:23;;;;;;;2.58;1.65;;;;;;;13.18;100.00;98592.52;1706335;82;21642;-70
2021/05/21 03:49:00;;;;;;;2.22;1.85;;;;;;;13.18;100.00;98587.22;1699319;82;21495;-71
2021/05/21 03:51:30;;;;;;;2.55;1.62;;;;;;;13.15;100.00;98592.10;1701666;82;21508;-68
2021/05/21 03:53:59;;;;;;;3.00;1.80;;;;;;;13.13;100.00;98599.22;1706410;84;20930;-70
2021/05/21 03:56:27;;;;;;;7.67;2.27;;;;;;;13.13;100.00;98600.99;1706573;82;20922;-69
2021/05/21 03:58:56;;;;;;;2.05;1.57;;;;;;;13.14;100.00;98605.38;1706194;82;20991;-68
2021/05/21 04:01:26;;;;;;;4.40;1.62;;;;;;;13.13;100.00;98605.84;1706210;82;21479;-68
2021/05/21 04:03:56;;;;;;;3.75;1.82;;;;;;;13.12;100.00;98607.20;1706297;82;20925;-67
2021/05/21 04:06:24;;;;;;;3.92;2.05;;;;;;;13.14;100.00;98613.33;1706256;84;20982;-68
2021/05/21 04:08:52;;;;;;;3.98;1.90;;;;;;;13.14;100.00;98619.95;1706304;82;21480;-69
2021/05/21 04:11:20;;;;;;;4.28;1.62;;;;;;;13.13;100.00;98621.72;1706268;82;21467;-69
2021/05/21 04:13:48;;;;;;;5.15;1.57;;;;;;;13.15;100.00;98621.23;1706201;84;21459;-70
2021/05/21 04:16:15;;;;;;;3.30;1.57;;;;;;;13.18;100.00;98624.29;1706221;84;20910;-69
2021/05/21 04:18:42;;;;;;;2.58;1.67;;;;;;;13.18;100.00;98627.81;1706192;82;20969;-69
2021/05/21 04:21:11;;;;;;;3.12;1.82;;;;;;;13.20;100.00;98624.67;1706214;82;20903;-68
2021/05/21 04:23:40;;;;;;;3.35;1.62;;;;;;;13.22;100.00;98628.15;1706233;83;21503;-69
2021/05/21 04:26:08;;;;;;;2.58;1.60;;;;;;;13.26;100.00;98634.27;1706205;82;21444;-69
2021/05/21 04:28:36;;;;;;;5.40;1.90;;;;;;;13.33;100.00;98644.26;1706264;84;21527;-69
2021/05/21 04:31:04;;;;;;;3.05;1.80;;;;;;;13.36;100.00;98640.20;1706209;84;21456;-70
2021/05/21 04:33:32;;;;;;;3.60;1.60;;;;;;;13.39;100.00;98640.12;1706287;84;20945;-67
2021/05/21 04:36:00;;;;;;;6.60;1.90;;;;;;;13.44;100.00;98643.07;1706340;84;21056;-68
2021/05/21 04:38:28;;;;;;;4.20;1.72;;;;;;;13.49;100.00;98649.12;1706205;84;20973;-68
2021/05/21 04:40:57;;;;;;;3.00;1.65;;;;;;;13.53;100.00;98653.88;1706190;82;20969;-68
2021/05/21 04:43:26;;;;;;;4.53;2.02;;;;;;;13.57;100.00;98654.67;1706327;82;21044;-66
2021/05/21 04:45:54;;;;;;;2.87;1.60;;;;;;;13.62;100.00;98654.97;1706321;84;20954;-68
2021/05/21 04:48:22;;;;;;;2.62;1.60;;;;;;;13.68;100.00;98656.13;1706211;82;21915;-68
2021/05/21 04:50:50;;;;;;;2.77;1.90;;;;;;;13.73;100.00;98659.56;1706133;82;20926;-69
2021/05/21 04:53:18;;;;;;;7.80;1.70;;;;;;;13.79;100.00;98662.05;1706216;83;20934;-69
2021/05/21 04:55:46;;;;;;;3.30;1.82;;;;;;;13.84;100.00;98662.80;1706188;82;21448;-70
2021/05/21 04:58:14;;;;;;;1.98;1.65;;;;;;;13.94;100.00;98667.84;1706270;84;20927;-69
2021/05/21 05:00:41;;;;;;;3.00;1.75;;;;;;;14.00;100.00;98660.59;1706264;83;21045;-69
2021/05/21 05:03:12;;;;;;;1.82;1.65;;;;;;;14.10;100.00;98667.83;1706135;82;20862;-68
2021/05/21 05:05:39;;;;;;;6.17;1.90;;;;;;;14.21;100.00;98675.52;1706308;82;20930;-68
2021/05/21 05:08:09;;;;;;;2.45;1.70;;;;;;;14.30;100.00;98681.44;1706135;84;21464;-69
2021/05/21 05:10:37;;;;;;;2.55;1.70;;;;;;;14.35;100.00;98682.63;1706260;83;20962;-69
2021/05/21 05:13:05;;;;;;;4.83;1.75;;;;;;;14.40;100.00;98682.91;1706236;82;21635;-68
2021/05/21 05:15:33;;;;;;;2.42;1.70;;;;;;;14.47;100.00;98685.83;1706147;84;21437;-68
2021/05/21 05:18:01;;;;;;;4.17;1.62;;;;;;;14.55;100.00;98689.59;1706225;82;20957;-68
2021/05/21 05:20:29;;;;;;;2.42;1.80;;;;;;;14.60;100.00;98690.77;1706262;84;20990;-68
2021/05/21 05:22:57;;;;;;;3.27;1.80;;;;;;;14.64;100.00;98693.75;1706149;82;21528;-69
2021/05/21 05:25:25;;;;;;;4.15;1.82;;;;;;;14.66;100.00;98689.27;1706187;82;21421;-70
2021/05/21 05:27:53;;;;;;;3.20;1.60;;;;;;;14.70;100.00;98693.60;1706129;82;20874;-69
2021/05/21 05:30:22;;;;;;;1.60;1.50;;;;;;;14.73;100.00;98695.70;1686306;84;21412;-67
2021/05/21 05:32:50;;;;;;;3.22;1.75;;;;;;;14.78;100.00;98697.77;1706116;84;20922;-67
2021/05/21 05:35:18;;;;;;;4.85;1.80;;;;;;;14.83;100.00;98700.28;1706189;82;21424;-67
2021/05/21 05:37:45;;;;;;;2.47;1.55;;;;;;;14.83;100.00;98701.60;1706133;84;21051;-69
2021/05/21 05:40:13;;;;;;;2.00;1.65;;;;;;;14.89;100.00;98710.71;1712304;83;20913;-67
2021/05/21 05:42:42;;;;;;;3.25;1.55;;;;;;;14.94;100.00;98713.23;1719617;83;20898;-69
2021/05/21 05:45:11;;;;;;;2.85;1.60;;;;;;;15.00;100.00;98711.70;1719706;82;21455;-68
2021/05/21 05:47:39;;;;;;;3.02;1.70;;;;;;;15.03;100.00;98717.80;1719754;82;20941;-68
2021/05/21 05:50:08;;;;;;;2.15;1.60;;;;;;;15.06;100.00;98716.38;1719754;83;21704;-68
2021/05/21 05:52:35;;;;;;;3.87;1.50;;;;;;;15.09;100.00;98719.39;1719677;82;20961;-68
2021/05/21 05:55:04;;;;;;;2.05;1.50;;;;;;;15.16;100.00;98726.74;1719683;83;20949;-68
2021/05/21 05:57:31;;;;;;;6.12;1.87;;;;;;;15.18;100.00;98723.13;1719674;83;21072;-67
2021/05/21 05:59:59;;;;;;;3.90;1.82;;;;;;;15.23;100.00;98729.16;1719722;83;20937;-68
2021/05/21 06:02:27;;;;;;;2.50;1.52;;;;;;;15.28;100.00;98733.00;1719686;83;21046;-67
2021/05/21 06:04:57;;;;;;;2.00;1.72;;;;;;;15.32;100.00;98728.86;1719721;82;20890;-67
2021/05/21 06:07:24;;;;;;;4.65;2.02;;;;;;;15.39;100.00;98740.16;1719739;82;20937;-67
2021/05/21 06:09:52;;;;;;;2.40;1.60;;;;;;;15.50;100.00;98742.48;1719640;83;20929;-67
2021/05/21 06:12:19;;;;;;;3.92;1.55;;;;;;;15.60;100.00;98739.96;1719720;83;21418;-67
2021/05/21 06:14:48;;;;;;;2.75;1.45;;;;;;;15.71;100.00;98740.51;1719703;82;21009;-67
2021/05/21 06:17:18;;;;;;;4.33;1.72;;;;;;;15.84;100.00;98732.52;1719643;82;20921;-67
2021/05/21 06:19:47;;;;;;;1.55;1.45;;;;;;;15.95;100.00;98734.35;1719737;82;20885;-68
2021/05/21 06:22:14;;;;;;;6.37;1.30;;;;;;;16.05;100.00;98735.77;1719688;83;20964;-67
2021/05/21 06:24:45;;;;;;;2.50;1.25;;;;;;;16.15;100.00;98736.35;1719842;83;20938;-67
2021/05/21 06:27:24;;;;;;;1.40;1.20;;;;;;;16.29;100.00;98740.72;1719679;82;21475;-67
2021/05/21 06:29:52;;;;;;;4.58;1.50;;;;;;;16.42;100.00;98735.83;1719653;83;20921;-67
2021/05/21 06:32:19;;;;;;;1.70;1.50;;;;;;;16.55;100.00;98740.23;1719697;82;20893;-67
2021/05/21 06:34:48;;;;;;;3.92;1.45;;;;;;;16.63;100.00;98732.86;1719640;82;21435;-68
2021/05/21 06:37:16;;;;;;;2.58;1.22;;;;;;;16.72;100.00;98739.67;1719726;83;21507;-68
2021/05/21 06:39:44;;;;;;;1.40;1.30;;;;;;;16.81;100.00;98741.99;1719606;82;21071;-66
2021/05/21 06:42:12;;;;;;;2.87;1.95;;;;;;;16.88;100.00;98740.37;1719702;82;21420;-67
2021/05/21 06:44:42;;;;;;;2.83;1.15;;;;;;;16.97;100.00;98730.69;1719636;82;20918;-67
2021/05/21 06:47:09;;;;;;;3.70;1.42;;;;;;;17.09;100.00;98741.83;1723784;82;21487;-67
2021/05/21 06:49:39;;;;;;;4.03;1.17;;;;;;;17.18;100.00;98740.14;1732859;82;20950;-67
2021/05/21 06:52:07;;;;;;;2.12;1.20;;;;;;;17.27;100.00;98740.64;1719687;82;21032;-67
2021/05/21 06:54:36;;;;;;;3.02;1.20;;;;;;;17.36;100.00;98744.73;1719604;83;20930;-68
2021/05/21 06:57:03;;;;;;;2.95;1.37;;;;;;;17.44;100.00;98742.63;1719684;83;21451;-68
2021/05/21 06:59:31;;;;;;;1.95;1.37;;;;;;;17.51;100.00;98748.62;1719667;82;21427;-68
2021/05/21 07:01:59;;;;;;;3.85;1.20;;;;;;;17.59;100.00;98747.84;1719701;83;21551;-68
2021/05/21 07:04:26;;;;;;;5.90;1.10;;;;;;;17.65;100.00;98743.59;1719684;82;21747;-68
2021/05/21 07:06:55;;;;;;;2.45;2.00;;;;;;;17.72;100.00;98740.23;1719607;83;20915;-68
2021/05/21 07:09:22;;;;;;;2.60;1.80;;;;;;;17.77;100.00;98745.78;1719684;82;21472;-68
2021/05/21 07:11:52;;;;;;;2.17;1.60;;;;;;;17.81;100.00;98745.19;1719656;83;20910;-67
2021/05/21 07:14:21;;;;;;;1.82;1.25;;;;;;;17.80;100.00;98742.11;1719745;82;20945;-68
2021/05/21 07:16:50;;;;;;;2.67;1.20;;;;;;;17.81;100.00;98742.05;1719660;82;20933;-67
2021/05/21 07:19:18;;;;;;;3.15;2.02;;;;;;;17.85;100.00;98739.66;1719902;82;21364;-68
2021/05/21 07:21:46;;;;;;;5.72;2.00;;;;;;;17.91;100.00;98743.40;1719954;82;20913;-67
2021/05/21 07:24:14;;;;;;;1.87;1.30;;;;;;;17.98;100.00;98748.04;1719820;83;20981;-66
2021/05/21 07:26:41;;;;;;;2.87;1.40;;;;;;;18.06;100.00;98757.05;1724017;82;21028;-67
2021/05/21 07:29:08;;;;;;;2.30;1.35;;;;;;;18.09;100.00;98754.25;1733065;82;21050;-67
2021/05/21 07:31:36;;;;;;;2.90;1.20;;;;;;;18.12;100.00;98754.98;1719886;82;20921;-67
2021/05/21 07:34:04;;;;;;;2.60;1.17;;;;;;;18.17;100.00;98754.33;1719810;83;21345;-67
2021/05/21 07:36:34;;;;;;;4.30;1.30;;;;;;;18.19;100.00;98760.93;1719873;83;21460;-67
2021/05/21 07:39:02;;;;;;;4.80;1.60;;;;;;;18.20;100.00;98757.33;1719876;83;20897;-67
2021/05/21 07:41:29;;;;;;;2.75;1.70;;;;;;;18.23;100.00;98762.07;1710306;83;20969;-67
2021/05/21 07:43:57;;;;;;;2.37;1.40;;;;;;;18.24;100.00;98759.80;1706213;82;21536;-67
2021/05/21 07:46:26;;;;;;;5.20;1.60;;;;;;;18.23;100.00;98767.41;1706302;82;20918;-67
2021/05/21 07:48:57;;;;;;;1.95;1.40;;;;;;;18.20;100.00;98774.68;1706264;84;21432;-67
2021/05/21 07:51:24;;;;;;;5.97;1.15;;;;;;;18.20;100.00;98774.68;1706367;82;20941;-68
2021/05/21 07:53:52;;;;;;;3.40;1.15;;;;;;;18.22;100.00;98780.36;1706391;83;21046;-68
2021/05/21 07:56:20;;;;;;;3.95;1.10;;;;;;;18.24;100.00;98782.49;1706242;84;20878;-67
2021/05/21 07:58:50;;;;;;;2.42;1.32;;;;;;;18.29;100.00;98778.29;1706309;82;20943;-67
2021/05/21 08:01:18;;;;;;;4.47;1.70;;;;;;;18.39;100.00;98781.42;1706338;84;20958;-67
2021/05/21 08:03:48;;;;;;;6.72;3.52;;;;;;;18.39;100.00;98781.42;1706348;82;21479;-68
2021/05/21 08:06:15;;;;;;;4.67;2.75;;;;;;;18.42;100.00;98779.95;1706242;82;21082;-67
2021/05/21 08:08:44;;;;;;;5.05;2.58;;;;;;;18.38;100.00;98781.89;1706347;83;20914;-68
2021/05/21 08:11:11;;;;;;;5.25;2.77;;;;;;;18.36;100.00;98782.43;1706275;82;21430;-68
2021/05/21 08:13:39;;;;;;;4.85;2.00;;;;;;;18.38;100.00;98788.56;1708485;82;20914;-68
2021/05/21 08:16:10;;;;;;;3.85;1.60;;;;;;;18.37;100.00;98780.63;1720154;82;20922;-68
2021/05/21 08:18:39;;;;;;;2.12;1.32;;;;;;;18.37;100.00;98780.63;1706255;82;20965;-68
2021/05/21 08:21:10;;;;;;;1.42;1.30;;;;;;;18.33;100.00;98781.23;1706195;82;20886;-69
2021/05/21 08:23:38;;;;;;;1.98;1.15;;;;;;;18.31;100.00;98776.42;1706265;82;20906;-67
2021/05/21 08:26:11;;;;;;;2.50;1.10;;;;;;;18.34;100.00;98784.77;1706255;82;20927;-68
2021/05/21 08:28:34;;;;;;;1.60;1.20;;;;;;;18.47;100.00;98783.33;1705663;82;20902;-68
2021/05/21 08:31:04;;;;;;;4.45;1.47;;;;;;;18.47;100.00;98783.33;1706324;82;21052;-68
2021/05/21 08:33:33;;;;;;;2.42;1.98;;;;;;;18.50;100.00;98784.52;1706240;84;20926;-68
2021/05/21 08:36:00;;;;;;;3.83;1.87;;;;;;;18.50;100.00;98784.52;1706382;84;20898;-70
2021/05/21 08:38:28;;;;;;;3.08;1.40;;;;;;;18.55;100.00;98783.86;1714458;82;20906;-68
2021/05/21 08:40:57;;;;;;;3.27;1.42;;;;;;;18.57;100.00;98785.98;1731467;81;20874;-67
2021/05/21 08:43:24;;;;;;;3.60;1.90;;;;;;;18.61;100.00;98781.37;1735405;81;21496;-68
2021/05/21 08:45:52;;;;;;;6.40;4.58;;;;;;;18.71;100.00;98781.40;1734868;81;20981;-69
2021/05/21 08:48:20;;;;;;;2.90;2.50;;;;;;;18.78;100.00;98778.38;1735234;81;20930;-69
2021/05/21 08:50:51;;;;;;;3.00;1.32;;;;;;;18.90;100.00;98786.78;1735474;81;21002;-68
2021/05/21 08:53:18;;;;;;;1.32;0.90;;;;;;;19.01;100.00;98784.04;1735659;81;21416;-68
2021/05/21 08:55:47;;;;;;;1.85;0.78;;;;;;;19.13;100.00;98787.48;1735596;82;21030;-70
2021/05/21 08:58:14;;;;;;;1.25;0.70;;;;;;;19.28;100.00;98774.33;1735568;81;20910;-68
2021/05/21 09:00:42;;;;;;;5.67;0.82;;;;;;;19.40;100.00;98783.14;1735722;82;20887;-69
2021/05/21 09:03:23;;;;;;;3.27;0.70;;;;;;;19.55;100.00;98782.91;1735621;82;20910;-68
2021/05/21 09:06:20;;;;;;;0.95;0.70;;;;;;;19.68;100.00;98788.05;1727062;82;21010;-68
2021/05/21 09:08:56;;;;;;;2.27;0.78;;;;;;;19.80;100.00;98786.98;1707419;82;21445;-69
2021/05/21 09:11:41;;;;;;;1.00;0.78;;;;;;;19.97;100.00;98787.98;1706258;84;20950;-70
2021/05/21 09:14:18;;;;;;;1.02;0.93;;;;;;;20.13;100.00;98787.14;1706585;84;20913;-69
2021/05/21 09:16:47;;;;;;;3.42;1.27;;;;;;;20.30;100.00;98782.73;1706329;83;20922;-69
2021/05/21 09:19:20;;;;;;;4.67;1.30;;;;;;;20.43;100.00;98778.53;1706384;82;20914;-69
2021/05/21 09:22:09;;;;;;;2.52;1.00;;;;;;;20.59;100.00;98777.26;1706307;82;21043;-70
2021/05/21 09:24:39;;;;;;;3.08;1.27;;;;;;;20.76;100.00;98783.92;1706689;83;20936;-73
2021/05/21 09:27:09;;;;;;;4.22;1.07;;;;;;;20.93;100.00;98777.69;1710822;82;20914;-72
2021/05/21 09:29:50;;;;;;;2.05;1.50;;;;;;;21.04;100.00;98781.52;1707040;82;20961;-72
2021/05/21 09:32:29;;;;;;;2.50;1.00;;;;;;;21.20;100.00;98782.02;1707447;83;20938;-70
2021/05/21 09:35:19;;;;;;;1.65;0.80;;;;;;;21.37;99.07;98787.38;1707449;84;21136;-71
2021/05/21 09:37:48;;;;;;;7.85;0.70;;;;;;;21.48;94.75;98783.63;1707668;84;20949;-71
2021/05/21 09:40:21;;;;;;;5.40;1.22;;;;;;;21.57;89.46;98787.60;1707139;84;20914;-71
2021/05/21 09:43:00;;;;;;;3.55;0.55;;;;;;;21.63;85.18;98789.94;1719737;83;20929;-73
2021/05/21 09:45:33;;;;;;;0.70;0.40;;;;;;;21.69;80.62;98782.88;1720803;83;20964;-68
2021/05/21 09:48:08;;;;;;;2.55;0.53;;;;;;;21.77;79.89;98785.16;1720806;82;21093;-72
2021/05/21 09:50:43;;;;;;;0.68;0.60;;;;;;;21.83;78.74;98783.46;1720610;82;20925;-70
2021/05/21 09:53:25;;;;;;;2.45;0.50;;;;;;;21.90;77.94;98775.44;1719870;82;20941;-72
2021/05/21 09:55:57;;;;;;;1.75;0.50;;;;;;;22.05;79.64;98777.73;1719937;83;21002;-70
2021/05/21 09:58:32;;;;;;;1.02;0.50;;;;;;;22.20;80.80;98779.04;1720241;82;20917;-72
2021/05/21 10:01:15;;;;;;;1.42;0.60;;;;;;;22.34;79.51;98775.56;1720925;82;21086;-72
2021/05/21 10:03:44;;;;;;;0.60;0.53;;;;;;;22.51;80.27;98782.13;1720884;83;20925;-72
2021/05/21 10:06:12;;;;;;;2.12;0.55;;;;;;;22.71;79.15;98775.56;1720762;82;21376;-72
2021/05/21 10:08:42;;;;;;;2.40;0.70;;;;;;;22.87;74.75;98773.69;1720998;82;20945;-72
2021/05/21 10:11:09;;;;;;;2.70;0.70;;;;;;;23.00;73.21;98776.47;1720766;83;20913;-72
2021/05/21 10:13:37;;;;;;;2.55;0.60;;;;;;;23.19;73.22;98769.00;1720853;83;20966;-72
2021/05/21 10:16:05;;;;;;;2.47;1.25;;;;;;;23.37;74.41;98770.13;1720812;82;20897;-72
2021/05/21 10:18:35;;;;;;;1.35;0.80;;;;;;;23.52;72.59;98775.39;1721090;82;20909;-72
2021/05/21 10:21:03;;;;;;;0.70;0.70;;;;;;;23.70;72.54;98772.52;1721000;83;21018;-72
2021/05/21 10:23:39;;;;;;;2.02;0.70;;;;;;;23.81;68.57;98765.47;1720836;82;20952;-71
2021/05/21 10:26:14;;;;;;;1.80;0.62;;;;;;;23.81;62.67;98772.68;1720665;83;21197;-72
2021/05/21 10:28:45;;;;;;;3.15;0.90;;;;;;;23.75;58.24;98779.34;1720379;82;21352;-71
2021/05/21 10:31:14;;;;;;;3.40;0.90;;;;;;;23.55;56.06;98789.16;1720426;82;21373;-69
2021/05/21 10:33:43;;;;;;;3.90;0.70;;;;;;;23.29;56.24;98789.94;1720735;82;20953;-72
2021/05/21 10:36:29;;;;;;;0.88;0.70;;;;;;;22.96;56.23;98793.77;1720972;82;20909;-69
2021/05/21 10:39:19;;;;;;;0.98;0.88;;;;;;;22.62;57.19;98798.95;1720938;82;21049;-71
2021/05/21 10:42:20;;;;;;;2.80;0.90;;;;;;;22.26;58.18;98805.58;1713994;83;20946;-71
2021/05/21 10:44:50;;;;;;;2.42;1.17;;;;;;;21.93;58.48;98802.98;1710163;82;20906;-70
2021/05/21 10:47:23;;;;;;;5.33;1.30;;;;;;;21.66;60.17;98795.13;1707528;84;21440;-71
2021/05/21 10:50:05;;;;;;;6.45;0.90;;;;;;;21.51;62.33;98792.84;1706989;82;20910;-64
2021/05/21 10:52:58;;;;;;;3.05;1.10;;;;;;;21.40;64.36;98793.05;1706963;82;21102;-69
2021/05/21 10:55:43;;;;;;;3.37;0.93;;;;;;;21.26;65.37;98797.34;1706597;84;20918;-69
2021/05/21 10:58:20;;;;;;;3.58;1.00;;;;;;;21.17;66.76;98804.98;1706654;83;20918;-71
2021/05/21 11:01:22;;;;;;;2.92;0.90;;;;;;;21.08;68.40;98805.49;1706753;84;21461;-69
2021/05/21 11:04:02;;;;;;;4.22;1.00;;;;;;;21.13;74.20;98801.61;1706793;84;21414;-65
2021/05/21 11:06:31;;;;;;;4.08;1.00;;;;;;;21.32;80.91;98803.73;1707078;82;21662;-67
2021/05/21 11:09:09;;;;;;;1.07;0.78;;;;;;;21.55;84.13;98802.45;1707012;82;21401;-69
2021/05/21 11:12:03;;;;;;;7.80;1.00;;;;;;;21.79;80.64;98807.41;1707150;82;20958;-68
2021/05/21 11:14:44;;;;;;;2.72;1.07;;;;;;;22.00;77.48;98796.30;1707252;84;20958;-68
2021/05/21 11:17:15;;;;;;;2.37;0.77;;;;;;;22.16;76.27;98803.48;1722151;81;20926;-69
2021/05/21 11:19:57;;;;;;;6.00;1.00;;;;;;;22.22;73.39;98796.41;1708204;82;21052;-70
2021/05/21 11:22:37;;;;;;;1.95;1.32;;;;;;;22.16;67.75;98804.35;1707095;82;20886;-69
2021/05/21 11:25:15;;;;;;;2.47;0.90;;;;;;;22.03;66.09;98799.31;1707359;82;20914;-73
2021/05/21 11:27:45;;;;;;;2.90;0.90;;;;;;;21.92;66.56;98803.94;1707451;82;20950;-75
2021/05/21 11:30:19;;;;;;;1.60;0.65;;;;;;;21.77;66.94;98804.81;1664973;84;20930;-75
2021/05/21 11:32:46;;;;;;;3.40;0.90;;;;;;;21.63;66.91;98808.25;1707624;82;21052;-74
2021/05/21 11:35:14;;;;;;;3.30;0.80;;;;;;;21.46;67.40;98816.39;1707266;82;20906;-77
2021/05/21 11:37:42;;;;;;;1.27;1.10;;;;;;;21.26;68.32;98817.45;1706563;84;20898;-69
2021/05/21 11:40:11;;;;;;;8.30;1.17;;;;;;;21.06;69.01;98811.80;1706494;82;20986;-67
2021/05/21 11:42:40;;;;;;;2.60;0.90;;;;;;;20.92;70.59;98810.81;1714021;82;21551;-68
2021/05/21 11:45:09;;;;;;;1.02;0.90;;;;;;;20.80;71.65;98812.30;1693431;82;21558;-68
2021/05/21 11:47:40;;;;;;;5.08;0.90;;;;;;;20.72;73.46;98810.50;1719999;82;21036;-68
2021/05/21 11:50:09;;;;;;;0.90;0.80;;;;;;;20.69;74.76;98814.21;1719931;82;20873;-69
2021/05/21 11:52:37;;;;;;;3.10;1.07;;;;;;;20.66;75.82;98807.67;1719913;82;21439;-69
2021/05/21 11:55:06;;;;;;;1.57;1.00;;;;;;;20.66;77.24;98814.84;1719970;82;21467;-69
2021/05/21 11:57:34;;;;;;;7.87;1.30;;;;;;;20.66;77.69;98811.69;1719886;82;21729;-69
2021/05/21 12:00:02;;;;;;;2.10;0.90;;;;;;;20.65;76.49;98811.77;1719873;82;21480;-69
2021/05/21 12:02:32;;;;;;;2.05;1.10;;;;;;;20.63;75.99;98810.98;1670000;83;21456;-69
2021/05/21 12:05:00;;;;;;;3.10;0.95;;;;;;;20.68;78.82;98808.93;1719902;82;21500;-69
2021/05/21 12:07:28;;;;;;;1.95;0.80;;;;;;;20.71;77.74;98801.59;1669987;82;20897;-69
2021/05/21 12:10:04;;;;;;;1.85;1.10;;;;;;;20.77;77.21;98810.26;1719922;82;21045;-69